createdAt,value
2024-05-09T00:00:46.216Z,62.28
2024-05-09T00:03:14.350Z,61.84
2024-05-09T00:05:43.045Z,61.17
2024-05-09T00:08:10.887Z,61.42
2024-05-09T00:10:40.046Z,61.53
2024-05-09T00:13:08.870Z,61.82
2024-05-09T00:15:37.098Z,61.72
2024-05-09T00:18:05.716Z,61.32
2024-05-09T00:20:38.812Z,60.89
2024-05-09T00:23:12.680Z,60.67
2024-05-09T00:25:43.075Z,60.68
2024-05-09T00:28:12.157Z,60.61
2024-05-09T00:30:39.974Z,60.77
2024-05-09T00:33:09.268Z,60.48
2024-05-09T00:35:38.497Z,60.72
2024-05-09T00:38:06.355Z,61.01
2024-05-09T00:40:40.654Z,60.78
2024-05-09T00:43:11.381Z,60.60
2024-05-09T00:45:39.569Z,60.42
2024-05-09T00:48:08.927Z,60.62
2024-05-09T00:50:39.779Z,60.66
2024-05-09T00:53:07.567Z,60.09
2024-05-09T00:55:35.796Z,59.58
2024-05-09T00:58:03.781Z,59.86
2024-05-09T01:00:38.229Z,60.14
2024-05-09T01:03:10.534Z,59.71
2024-05-09T01:05:40.261Z,59.44
2024-05-09T01:08:08.421Z,59.58
2024-05-09T01:10:36.991Z,59.82
2024-05-09T01:13:05.240Z,59.79
2024-05-09T01:15:33.398Z,59.92
2024-05-09T01:18:06.887Z,60.15
2024-05-09T01:20:41.337Z,59.97
2024-05-09T01:23:12.344Z,60.42
2024-05-09T01:25:40.588Z,60.59
2024-05-09T01:28:08.090Z,60.20
2024-05-09T01:30:37.537Z,60.57
2024-05-09T01:33:08.058Z,60.73
2024-05-09T01:35:37.457Z,60.83
2024-05-09T01:38:05.484Z,61.16
2024-05-09T01:40:37.959Z,61.36
2024-05-09T01:43:11.528Z,61.92
2024-05-09T01:45:40.433Z,61.76
2024-05-09T01:48:09.084Z,62.01
2024-05-09T01:50:40.487Z,61.69
2024-05-09T01:53:11.217Z,62.22
2024-05-09T01:55:39.181Z,62.25
2024-05-09T01:58:07.479Z,62.60
2024-05-09T02:00:40.257Z,62.43
2024-05-09T02:03:13.381Z,62.37
2024-05-09T02:05:44.584Z,62.38
2024-05-09T02:08:19.706Z,62.25
2024-05-09T02:10:48.198Z,62.41
2024-05-09T02:13:16.359Z,62.15
2024-05-09T02:15:44.059Z,61.90
2024-05-09T02:18:12.014Z,62.16
2024-05-09T02:20:41.317Z,62.33
2024-05-09T02:23:09.553Z,62.42
2024-05-09T02:25:38.442Z,62.79
2024-05-09T02:28:06.017Z,62.98
2024-05-09T02:30:40.304Z,63.61
2024-05-09T02:33:12.153Z,63.60
2024-05-09T02:35:42.753Z,63.51
2024-05-09T02:38:11.270Z,64.38
2024-05-09T02:40:39.913Z,64.54
2024-05-09T02:43:09.559Z,65.33
2024-05-09T02:45:41.124Z,65.52
2024-05-09T02:48:13.370Z,65.70
2024-05-09T02:50:42.063Z,66.35
2024-05-09T02:53:13.688Z,66.90
2024-05-09T02:55:42.023Z,67.02
2024-05-09T02:58:10.286Z,66.90
2024-05-09T03:00:41.094Z,66.97
2024-05-09T03:03:13.441Z,67.22
2024-05-09T03:05:46.207Z,66.92
2024-05-09T03:08:14.625Z,67.11
2024-05-09T03:10:42.069Z,67.53
2024-05-09T03:13:11.655Z,67.61
2024-05-09T03:15:39.751Z,67.73
2024-05-09T03:18:07.604Z,67.69
2024-05-09T03:20:36.819Z,67.69
2024-05-09T03:23:06.392Z,68.18
2024-05-09T03:25:34.332Z,68.32
2024-05-09T03:28:01.995Z,68.31
2024-05-09T03:30:38.780Z,68.61
2024-05-09T03:33:15.711Z,69.03
2024-05-09T03:35:44.294Z,69.14
2024-05-09T03:38:12.116Z,69.16
2024-05-09T03:40:46.852Z,69.36
2024-05-09T03:43:14.890Z,68.81
2024-05-09T03:45:43.079Z,68.58
2024-05-09T03:48:11.061Z,68.90
2024-05-09T03:50:38.985Z,68.10
2024-05-09T03:53:07.576Z,68.03
2024-05-09T03:55:35.280Z,67.79
2024-05-09T03:58:02.824Z,67.05
2024-05-09T04:00:36.931Z,66.53
2024-05-09T04:03:09.442Z,66.82
2024-05-09T04:05:40.909Z,66.45
2024-05-09T04:08:10.004Z,66.42
2024-05-09T04:10:37.888Z,66.82
2024-05-09T04:13:05.510Z,67.32
2024-05-09T04:15:33.319Z,66.83
2024-05-09T04:18:02.124Z,66.77
2024-05-09T04:20:37.677Z,66.30
2024-05-09T04:23:09.139Z,65.19
2024-05-09T04:25:37.966Z,64.05
2024-05-09T04:28:06.857Z,63.61
2024-05-09T04:30:38.865Z,63.50
2024-05-09T04:33:11.042Z,62.79
2024-05-09T04:35:42.643Z,62.24
2024-05-09T04:38:10.798Z,61.93
2024-05-09T04:40:38.595Z,61.42
2024-05-09T04:43:07.123Z,60.92
2024-05-09T04:45:35.810Z,59.46
2024-05-09T04:48:04.031Z,58.31
2024-05-09T04:50:36.987Z,57.53
2024-05-09T04:53:09.130Z,57.64
2024-05-09T04:55:38.706Z,57.61
2024-05-09T04:58:09.876Z,57.12
2024-05-09T05:00:39.906Z,57.31
2024-05-09T05:03:13.271Z,56.82
2024-05-09T05:05:44.848Z,56.80
2024-05-09T05:08:17.989Z,56.54
2024-05-09T05:10:47.484Z,55.95
2024-05-09T05:13:17.684Z,55.28
2024-05-09T05:15:49.799Z,54.49
2024-05-09T05:18:17.711Z,53.92
2024-05-09T05:20:45.489Z,54.07
2024-05-09T05:23:15.480Z,53.55
2024-05-09T05:25:43.490Z,53.39
2024-05-09T05:28:11.494Z,53.02
2024-05-09T05:30:40.501Z,52.11
2024-05-09T05:33:11.960Z,53.11
2024-05-09T05:35:40.407Z,54.05
2024-05-09T05:38:08.298Z,55.28
2024-05-09T05:40:40.606Z,56.55
2024-05-09T05:43:09.728Z,57.26
2024-05-09T05:45:38.614Z,57.16
2024-05-09T05:48:07.469Z,57.42
2024-05-09T05:50:37.904Z,57.08
2024-05-09T05:53:07.979Z,56.39
2024-05-09T05:55:37.136Z,56.50
2024-05-09T05:58:05.280Z,56.85
2024-05-09T06:00:38.973Z,56.64
2024-05-09T06:03:09.898Z,56.33
2024-05-09T06:05:40.614Z,55.54
2024-05-09T06:08:09.101Z,54.67
2024-05-09T06:10:39.778Z,55.30
2024-05-09T06:13:11.491Z,54.49
2024-05-09T06:15:40.315Z,54.36
2024-05-09T06:18:09.674Z,53.96
2024-05-09T06:20:40.209Z,54.07
2024-05-09T06:23:08.131Z,53.99
2024-05-09T06:25:36.570Z,54.56
2024-05-09T06:28:04.694Z,54.26
2024-05-09T06:30:40.415Z,54.36
2024-05-09T06:33:12.273Z,54.39
2024-05-09T06:35:41.742Z,53.52
2024-05-09T06:38:09.898Z,53.48
2024-05-09T06:40:41.474Z,52.31
2024-05-09T06:43:15.031Z,51.57
2024-05-09T06:45:44.087Z,52.76
2024-05-09T06:48:12.123Z,52.18
2024-05-09T06:50:41.085Z,50.53
2024-05-09T06:53:09.396Z,50.75
2024-05-09T06:55:38.002Z,50.20
2024-05-09T06:58:06.409Z,49.15
2024-05-09T07:00:39.347Z,49.10
2024-05-09T07:03:18.200Z,47.64
2024-05-09T07:05:48.134Z,48.13
2024-05-09T07:08:17.110Z,47.62
2024-05-09T07:10:45.015Z,47.06
2024-05-09T07:13:13.729Z,47.04
2024-05-09T07:15:41.825Z,47.01
2024-05-09T07:18:13.905Z,47.44
2024-05-09T07:20:42.452Z,46.86
2024-05-09T07:23:11.077Z,46.35
2024-05-09T07:25:40.068Z,46.97
2024-05-09T07:28:26.371Z,46.52
2024-05-09T07:30:53.909Z,47.04
2024-05-09T07:33:23.430Z,47.23
2024-05-09T07:35:52.715Z,46.74
2024-05-09T07:38:20.476Z,47.07
2024-05-09T07:40:48.102Z,46.91
2024-05-09T07:43:16.364Z,46.22
2024-05-09T07:45:51.895Z,45.40
2024-05-09T07:52:37.323Z,45.90
2024-05-09T07:53:48.844Z,45.43
2024-05-09T07:56:22.313Z,46.29
2024-05-09T07:58:52.700Z,47.02
2024-05-09T08:01:22.323Z,46.46
2024-05-09T08:03:50.334Z,46.64
2024-05-09T08:06:18.075Z,46.50
2024-05-09T08:08:49.580Z,46.50
2024-05-09T08:11:17.075Z,45.82
2024-05-09T08:13:44.653Z,45.71
2024-05-09T08:16:13.811Z,45.63
2024-05-09T08:18:42.686Z,45.70
2024-05-09T08:21:10.611Z,45.76
2024-05-09T08:23:38.114Z,46.51
2024-05-09T08:26:05.925Z,45.78
2024-05-09T08:28:33.575Z,45.99
2024-05-09T08:31:04.220Z,46.39
2024-05-09T08:33:34.177Z,46.03
2024-05-09T08:36:01.843Z,46.31
2024-05-09T08:38:30.224Z,45.33
2024-05-09T08:40:57.706Z,46.26
2024-05-09T08:43:25.245Z,45.70
2024-05-09T08:45:52.909Z,45.37
2024-05-09T08:48:20.711Z,45.14
2024-05-09T08:50:48.356Z,44.28
2024-05-09T08:53:16.365Z,43.97
2024-05-09T08:55:45.652Z,44.22
2024-05-09T08:58:16.051Z,44.26
2024-05-09T09:00:45.636Z,45.23
2024-05-09T09:03:18.803Z,44.11
2024-05-09T09:05:54.487Z,43.08
2024-05-09T09:08:22.345Z,42.30
2024-05-09T09:10:53.082Z,42.30
2024-05-09T09:13:21.201Z,42.55
2024-05-09T09:15:52.232Z,42.40
2024-05-09T09:18:20.008Z,41.81
2024-05-09T09:20:47.592Z,43.14
2024-05-09T09:23:15.162Z,43.71
2024-05-09T09:25:43.203Z,44.02
2024-05-09T09:28:11.352Z,43.00
2024-05-09T09:30:42.480Z,42.11
2024-05-09T09:33:10.809Z,42.94
2024-05-09T09:35:41.878Z,42.27
2024-05-09T09:38:10.808Z,42.41
2024-05-09T09:40:46.823Z,42.65
2024-05-09T09:43:20.938Z,41.45
2024-05-09T09:45:53.235Z,42.12
2024-05-09T09:48:22.410Z,40.72
2024-05-09T09:50:52.092Z,40.93
2024-05-09T09:53:20.488Z,42.35
2024-05-09T09:55:48.362Z,41.81
2024-05-09T09:58:19.057Z,41.20
2024-05-09T10:00:47.124Z,41.03
2024-05-09T10:03:15.309Z,42.17
2024-05-09T10:05:46.371Z,42.01
2024-05-09T10:08:15.573Z,42.74
2024-05-09T10:10:46.528Z,42.17
2024-05-09T10:13:14.225Z,41.36
2024-05-09T10:15:51.369Z,40.83
2024-05-09T10:18:28.236Z,40.27
2024-05-09T10:20:59.764Z,40.30
2024-05-09T10:23:32.437Z,40.52
2024-05-09T10:26:01.890Z,40.49
2024-05-09T10:28:34.430Z,40.11
2024-05-09T10:31:08.793Z,39.66
2024-05-09T10:33:40.055Z,40.06
2024-05-09T10:36:14.415Z,40.29
2024-05-09T10:38:43.107Z,39.60
2024-05-09T10:41:11.170Z,39.62
2024-05-09T10:43:39.957Z,40.50
2024-05-09T10:46:07.867Z,40.03
2024-05-09T10:48:40.273Z,38.29
2024-05-09T10:51:08.422Z,36.72
2024-05-09T10:53:46.390Z,36.46
2024-05-09T10:56:14.508Z,36.67
2024-05-09T10:58:42.211Z,36.91
2024-05-09T11:01:10.693Z,35.87
2024-05-09T11:03:39.392Z,35.50
2024-05-09T11:06:07.746Z,35.34
2024-05-09T11:08:35.543Z,35.40
2024-05-09T11:11:07.669Z,36.21
2024-05-09T11:13:40.051Z,36.00
2024-05-09T11:16:17.626Z,34.95
2024-05-09T11:18:53.423Z,35.84
2024-05-09T11:21:21.357Z,36.07
2024-05-09T11:23:48.819Z,35.45
2024-05-09T11:26:19.359Z,35.86
2024-05-09T11:28:46.954Z,35.69
2024-05-09T11:31:14.572Z,35.81
2024-05-09T11:33:47.822Z,36.37
2024-05-09T11:36:15.693Z,36.37
2024-05-09T11:38:43.269Z,35.33
2024-05-09T11:41:17.212Z,34.91
2024-05-09T11:43:45.127Z,35.00
2024-05-09T11:46:13.056Z,34.20
2024-05-09T11:48:41.668Z,33.11
2024-05-09T11:51:09.830Z,33.98
2024-05-09T11:53:37.624Z,34.44
2024-05-09T11:56:05.589Z,33.63
2024-05-09T11:58:35.006Z,33.78
2024-05-09T12:01:04.903Z,33.90
2024-05-09T12:03:34.404Z,33.40
2024-05-09T12:06:02.183Z,32.92
2024-05-09T12:08:30.224Z,32.54
2024-05-09T12:10:58.300Z,32.79
2024-05-09T12:13:26.373Z,33.27
2024-05-09T12:15:54.364Z,32.96
2024-05-09T12:18:21.877Z,32.82
2024-05-09T12:20:49.369Z,32.96
2024-05-09T12:23:16.700Z,33.17
2024-05-09T12:25:44.258Z,32.56
2024-05-09T12:28:11.894Z,32.82
2024-05-09T12:30:41.622Z,33.03
2024-05-09T12:33:12.948Z,33.59
2024-05-09T12:35:44.287Z,33.74
2024-05-09T12:38:15.070Z,33.11
2024-05-09T12:40:43.066Z,32.93
2024-05-09T12:43:11.570Z,33.14
2024-05-09T12:45:40.501Z,33.23
2024-05-09T12:48:12.539Z,32.76
2024-05-09T12:50:41.147Z,33.41
2024-05-09T12:53:09.171Z,32.31
2024-05-09T12:55:44.333Z,32.73
2024-05-09T12:58:22.322Z,32.63
2024-05-09T13:00:51.974Z,32.10
2024-05-09T13:03:20.402Z,31.05
2024-05-09T13:05:48.569Z,31.01
2024-05-09T13:08:16.063Z,30.95
2024-05-09T13:10:43.644Z,31.04
2024-05-09T13:13:11.427Z,32.19
2024-05-09T13:15:39.398Z,32.11
2024-05-09T13:18:07.594Z,33.37
2024-05-09T13:20:36.405Z,32.60
2024-05-09T13:23:05.592Z,33.24
2024-05-09T13:25:37.705Z,33.22
2024-05-09T13:28:06.332Z,33.37
2024-05-09T13:30:39.774Z,33.85
2024-05-09T13:33:14.020Z,33.45
2024-05-09T13:35:46.667Z,33.19
2024-05-09T13:38:21.384Z,32.77
2024-05-09T13:40:50.133Z,32.81
2024-05-09T13:43:18.702Z,33.42
2024-05-09T13:45:46.797Z,32.52
2024-05-09T13:48:14.814Z,32.28
2024-05-09T13:50:42.953Z,32.79
2024-05-09T13:53:10.876Z,32.15
2024-05-09T13:55:39.367Z,32.10
2024-05-09T13:58:07.935Z,32.22
2024-05-09T14:00:44.482Z,32.60
2024-05-09T14:03:17.650Z,32.50
2024-05-09T14:05:47.703Z,32.20
2024-05-09T14:08:17.943Z,32.22
2024-05-09T14:10:47.280Z,32.93
2024-05-09T14:13:15.189Z,33.39
2024-05-09T14:15:43.365Z,32.82
2024-05-09T14:18:13.593Z,33.15
2024-05-09T14:20:42.676Z,32.73
2024-05-09T14:23:10.277Z,32.21
2024-05-09T14:25:42.099Z,32.44
2024-05-09T14:28:12.449Z,32.82
2024-05-09T14:30:41.028Z,31.74
2024-05-09T14:33:09.587Z,30.78
2024-05-09T14:35:38.847Z,31.64
2024-05-09T14:38:07.343Z,32.29
2024-05-09T14:40:41.600Z,31.97
2024-05-09T14:43:15.456Z,31.38
2024-05-09T14:45:44.052Z,31.58
2024-05-09T14:48:14.260Z,30.74
2024-05-09T14:50:42.484Z,31.21
2024-05-09T14:53:10.847Z,30.95
2024-05-09T14:55:40.153Z,30.42
2024-05-09T14:58:09.458Z,30.16
2024-05-09T15:00:41.254Z,30.66
2024-05-09T15:03:12.376Z,30.94
2024-05-09T15:05:40.412Z,31.22
2024-05-09T15:08:08.480Z,29.97
2024-05-09T15:10:37.103Z,29.81
2024-05-09T15:13:07.777Z,29.83
2024-05-09T15:15:37.373Z,29.51
2024-05-09T15:18:05.851Z,29.58
2024-05-09T15:20:36.401Z,29.42
2024-05-09T15:23:06.445Z,29.68
2024-05-09T15:25:35.151Z,29.71
2024-05-09T15:28:02.954Z,29.69
2024-05-09T15:30:33.375Z,30.29
2024-05-09T15:33:06.554Z,30.43
2024-05-09T15:35:35.777Z,30.25
2024-05-09T15:38:04.225Z,30.76
2024-05-09T15:40:38.947Z,31.01
2024-05-09T15:43:09.563Z,30.24
2024-05-09T15:45:39.965Z,30.78
2024-05-09T15:48:08.994Z,30.73
2024-05-09T15:50:40.743Z,30.46
2024-05-09T15:53:11.972Z,30.74
2024-05-09T15:55:40.272Z,31.09
2024-05-09T15:58:08.478Z,31.20
2024-05-09T16:00:40.062Z,31.77
2024-05-09T16:03:11.507Z,32.06
2024-05-09T16:05:41.395Z,31.84
2024-05-09T16:08:09.668Z,32.07
2024-05-09T16:10:43.490Z,32.16
2024-05-09T16:13:12.560Z,31.87
2024-05-09T16:15:40.331Z,32.04
2024-05-09T16:18:08.095Z,31.84
2024-05-09T16:20:40.191Z,31.53
2024-05-09T16:23:10.319Z,32.03
2024-05-09T16:25:38.936Z,32.27
2024-05-09T16:28:09.912Z,32.16
2024-05-09T16:30:39.387Z,32.80
2024-05-09T16:33:08.183Z,32.23
2024-05-09T16:35:36.521Z,32.46
2024-05-09T16:38:04.353Z,32.52
2024-05-09T16:40:39.218Z,33.06
2024-05-09T16:43:09.816Z,33.02
2024-05-09T16:45:38.753Z,33.14
2024-05-09T16:48:07.394Z,32.47
2024-05-09T16:50:35.919Z,32.50
2024-05-09T16:53:05.751Z,31.69
2024-05-09T16:55:34.742Z,31.32
2024-05-09T16:58:02.847Z,31.36
2024-05-09T17:00:39.058Z,30.80
2024-05-09T17:03:12.989Z,31.05
2024-05-09T17:05:42.872Z,31.02
2024-05-09T17:08:11.183Z,30.79
2024-05-09T17:10:38.837Z,30.95
2024-05-09T17:13:07.801Z,30.99
2024-05-09T17:15:37.263Z,31.17
2024-05-09T17:18:06.044Z,31.29
2024-05-09T17:20:36.326Z,31.91
2024-05-09T17:23:06.154Z,31.91
2024-05-09T17:25:34.748Z,32.07
2024-05-09T17:28:07.666Z,32.02
2024-05-09T17:30:37.894Z,32.01
2024-05-09T17:33:08.212Z,31.71
2024-05-09T17:35:37.142Z,31.93
2024-05-09T17:38:05.898Z,32.48
2024-05-09T17:40:36.548Z,32.60
2024-05-09T17:43:07.084Z,32.27
2024-05-09T17:45:40.358Z,33.16
2024-05-09T17:48:10.680Z,33.57
2024-05-09T17:50:39.933Z,33.72
2024-05-09T17:53:08.324Z,33.48
2024-05-09T17:55:36.774Z,33.77
2024-05-09T17:58:05.283Z,34.17
2024-05-09T18:00:39.185Z,34.56
2024-05-09T18:03:13.492Z,34.72
2024-05-09T18:05:43.109Z,34.73
2024-05-09T18:08:12.300Z,34.87
2024-05-09T18:10:41.436Z,35.13
2024-05-09T18:13:09.702Z,35.69
2024-05-09T18:15:38.040Z,35.71
2024-05-09T18:18:06.592Z,35.90
2024-05-09T18:20:41.975Z,36.34
2024-05-09T18:23:14.334Z,36.12
2024-05-09T18:25:43.228Z,36.40
2024-05-09T18:28:10.961Z,36.72
2024-05-09T18:30:39.338Z,37.09
2024-05-09T18:33:08.232Z,37.01
2024-05-09T18:35:36.861Z,36.98
2024-05-09T18:38:05.784Z,37.14
2024-05-09T18:40:36.654Z,37.24
2024-05-09T18:43:07.594Z,37.37
2024-05-09T18:45:39.908Z,37.75
2024-05-09T18:48:09.871Z,37.68
2024-05-09T18:50:40.218Z,37.68
2024-05-09T18:53:10.860Z,37.77
2024-05-09T18:55:39.314Z,37.77
2024-05-09T18:58:07.154Z,37.94
2024-05-09T19:00:38.455Z,37.97
2024-05-09T19:03:11.669Z,37.85
2024-05-09T19:05:43.228Z,38.12
2024-05-09T19:08:11.936Z,38.09
2024-05-09T19:10:39.715Z,38.63
2024-05-09T19:13:11.767Z,38.73
2024-05-09T19:15:41.726Z,38.81
2024-05-09T19:18:10.364Z,38.89
2024-05-09T19:20:38.584Z,38.76
2024-05-09T19:23:07.299Z,39.05
2024-05-09T19:25:36.048Z,38.95
2024-05-09T19:28:05.038Z,39.27
2024-05-09T19:30:39.673Z,39.69
2024-05-09T19:33:11.873Z,39.60
2024-05-09T19:35:40.444Z,40.01
2024-05-09T19:38:07.925Z,40.11
2024-05-09T19:40:35.946Z,40.07
2024-05-09T19:43:05.196Z,40.22
2024-05-09T19:45:35.409Z,40.60
2024-05-09T19:48:04.506Z,40.84
2024-05-09T19:50:40.903Z,40.91
2024-05-09T19:53:13.212Z,40.98
2024-05-09T19:55:41.542Z,41.18
2024-05-09T19:58:10.086Z,41.22
2024-05-09T20:00:41.217Z,41.45
2024-05-09T20:03:15.239Z,41.22
2024-05-09T20:05:47.532Z,41.46
2024-05-09T20:08:15.344Z,41.51
2024-05-09T20:10:43.443Z,41.51
2024-05-09T20:13:11.552Z,41.60
2024-05-09T20:15:40.060Z,41.50
2024-05-09T20:18:08.020Z,41.50
2024-05-09T20:20:39.818Z,41.45
2024-05-09T20:23:10.846Z,41.45
2024-05-09T20:25:38.466Z,41.53
2024-05-09T20:28:08.747Z,41.79
2024-05-09T20:30:36.722Z,41.93
2024-05-09T20:33:07.321Z,41.66
2024-05-09T20:35:36.416Z,41.66
2024-05-09T20:38:04.876Z,41.71
2024-05-09T20:40:36.745Z,41.93
2024-05-09T20:43:07.775Z,42.23
2024-05-09T20:45:36.203Z,42.34
2024-05-09T20:48:04.190Z,42.04
2024-05-09T20:50:38.232Z,41.96
2024-05-09T20:53:09.913Z,41.92
2024-05-09T20:55:37.934Z,41.79
2024-05-09T20:58:05.616Z,41.84
2024-05-09T21:00:39.535Z,41.88
2024-05-09T21:03:11.375Z,41.79
2024-05-09T21:05:40.421Z,41.72
2024-05-09T21:08:08.151Z,41.78
2024-05-09T21:10:36.701Z,41.92
2024-05-09T21:13:06.311Z,42.19
2024-05-09T21:15:35.144Z,42.29
2024-05-09T21:18:03.272Z,42.36
2024-05-09T21:20:33.442Z,42.45
2024-05-09T21:23:02.103Z,42.54
2024-05-09T21:25:30.594Z,42.34
2024-05-09T21:27:58.193Z,42.26
2024-05-09T21:30:32.783Z,42.84
2024-05-09T21:33:10.094Z,42.69
2024-05-09T21:35:39.572Z,42.78
2024-05-09T21:38:07.920Z,42.78
2024-05-09T21:40:37.364Z,42.81
2024-05-09T21:43:07.312Z,42.62
2024-05-09T21:45:35.801Z,42.51
2024-05-09T21:48:04.107Z,42.92
2024-05-09T21:50:38.931Z,42.73
2024-05-09T21:53:09.729Z,42.52
2024-05-09T21:55:37.314Z,42.60
2024-05-09T21:58:05.199Z,42.80
2024-05-09T22:00:37.682Z,42.92
2024-05-09T22:03:11.041Z,43.14
2024-05-09T22:05:42.465Z,42.98
2024-05-09T22:08:11.102Z,42.74
2024-05-09T22:10:39.128Z,42.75
2024-05-09T22:13:07.104Z,42.56
2024-05-09T22:15:36.435Z,42.49
2024-05-09T22:18:05.369Z,42.61
2024-05-09T22:20:37.813Z,42.89
2024-05-09T22:23:08.283Z,43.07
2024-05-09T22:25:38.741Z,42.95
2024-05-09T22:28:07.244Z,42.94
2024-05-09T22:30:38.491Z,43.16
2024-05-09T22:33:09.368Z,43.19
2024-05-09T22:35:38.372Z,42.99
2024-05-09T22:38:06.074Z,43.19
2024-05-09T22:40:42.988Z,42.92
2024-05-09T22:43:23.681Z,43.19
2024-05-09T22:45:54.868Z,43.02
2024-05-09T22:48:24.373Z,43.24
2024-05-09T22:50:53.681Z,43.57
2024-05-09T22:53:23.840Z,43.55
2024-05-09T22:55:51.453Z,43.87
2024-05-09T22:58:19.743Z,43.93
2024-05-09T23:00:47.370Z,43.63
2024-05-09T23:03:21.514Z,43.72
2024-05-09T23:05:49.732Z,43.74
2024-05-09T23:08:17.207Z,43.62
2024-05-09T23:10:44.694Z,44.15
2024-05-09T23:13:12.689Z,43.92
2024-05-09T23:15:40.691Z,43.92
2024-05-09T23:18:08.370Z,44.19
2024-05-09T23:20:38.985Z,44.35
2024-05-09T23:23:08.720Z,44.51
2024-05-09T23:25:37.232Z,44.89
2024-05-09T23:28:05.580Z,45.17
2024-05-09T23:30:38.010Z,45.06
2024-05-09T23:33:09.696Z,45.14
2024-05-09T23:35:37.968Z,44.95
2024-05-09T23:38:06.213Z,45.25
2024-05-09T23:40:39.463Z,45.63
2024-05-09T23:43:09.987Z,45.50
2024-05-09T23:45:38.186Z,45.68
2024-05-09T23:48:06.496Z,45.81
2024-05-09T23:50:37.413Z,46.00
2024-05-09T23:53:07.936Z,46.24
2024-05-09T23:55:36.995Z,46.20
2024-05-09T23:58:05.460Z,46.60
